sensor_id;sensor_type;location;lat;lon;timestamp;temperature;humidity
27667;DHT22;15074;50.940;5.282;2023-05-02T00:00:41;12.30;99.90
27667;DHT22;15074;50.940;5.282;2023-05-02T00:03:07;12.40;99.90
27667;DHT22;15074;50.940;5.282;2023-05-02T00:05:33;12.30;99.90
27667;DHT22;15074;50.940;5.282;2023-05-02T00:07:59;12.30;99.90
27667;DHT22;15074;50.940;5.282;2023-05-02T00:10:25;12.40;99.90
27667;DHT22;15074;50.940;5.282;2023-05-02T00:12:50;12.50;99.90
27667;DHT22;15074;50.940;5.282;2023-05-02T00:15:16;12.50;99.90
27667;DHT22;15074;50.940;5.282;2023-05-02T00:17:42;12.50;99.90
27667;DHT22;15074;50.940;5.282;2023-05-02T00:20:09;12.60;99.90
27667;DHT22;15074;50.940;5.282;2023-05-02T00:22:36;12.60;99.90
27667;DHT22;15074;50.940;5.282;2023-05-02T00:25:02;12.50;99.90
27667;DHT22;15074;50.940;5.282;2023-05-02T00:27:29;12.50;99.90
27667;DHT22;15074;50.940;5.282;2023-05-02T00:29:56;12.60;99.90
27667;DHT22;15074;50.940;5.282;2023-05-02T00:32:22;12.50;99.90
27667;DHT22;15074;50.940;5.282;2023-05-02T00:34:48;12.50;99.90
27667;DHT22;15074;50.940;5.282;2023-05-02T00:37:14;12.60;99.90
27667;DHT22;15074;50.940;5.282;2023-05-02T00:39:40;12.40;99.90
27667;DHT22;15074;50.940;5.282;2023-05-02T00:42:06;12.50;99.90
27667;DHT22;15074;50.940;5.282;2023-05-02T00:44:32;12.60;99.90
27667;DHT22;15074;50.940;5.282;2023-05-02T00:46:59;12.70;99.90
27667;DHT22;15074;50.940;5.282;2023-05-02T00:49:26;12.70;99.90
27667;DHT22;15074;50.940;5.282;2023-05-02T00:51:53;12.70;99.90
27667;DHT22;15074;50.940;5.282;2023-05-02T00:54:19;12.70;99.90
27667;DHT22;15074;50.940;5.282;2023-05-02T00:56:44;12.80;99.90
27667;DHT22;15074;50.940;5.282;2023-05-02T00:59:11;12.90;99.90
27667;DHT22;15074;50.940;5.282;2023-05-02T01:07:53;12.70;99.90
27667;DHT22;15074;50.940;5.282;2023-05-02T01:13:11;12.60;99.90
27667;DHT22;15074;50.940;5.282;2023-05-02T01:15:39;12.70;99.90
27667;DHT22;15074;50.940;5.282;2023-05-02T01:18:08;12.70;99.90
27667;DHT22;15074;50.940;5.282;2023-05-02T01:20:37;12.70;99.90
27667;DHT22;15074;50.940;5.282;2023-05-02T01:29:06;12.40;99.90
27667;DHT22;15074;50.940;5.282;2023-05-02T01:31:38;12.50;99.90
27667;DHT22;15074;50.940;5.282;2023-05-02T01:34:08;12.60;99.90
27667;DHT22;15074;50.940;5.282;2023-05-02T01:36:44;12.60;99.90
27667;DHT22;15074;50.940;5.282;2023-05-02T01:39:15;12.50;99.90
27667;DHT22;15074;50.940;5.282;2023-05-02T01:41:44;12.40;99.90
27667;DHT22;15074;50.940;5.282;2023-05-02T01:44:12;12.30;99.90
27667;DHT22;15074;50.940;5.282;2023-05-02T01:46:41;12.40;99.90
27667;DHT22;15074;50.940;5.282;2023-05-02T01:49:08;12.40;99.90
27667;DHT22;15074;50.940;5.282;2023-05-02T01:51:39;12.50;99.90
27667;DHT22;15074;50.940;5.282;2023-05-02T01:54:08;12.50;99.90
27667;DHT22;15074;50.940;5.282;2023-05-02T01:56:36;12.60;99.90
27667;DHT22;15074;50.940;5.282;2023-05-02T01:59:10;12.50;99.90
27667;DHT22;15074;50.940;5.282;2023-05-02T02:01:37;12.50;99.90
27667;DHT22;15074;50.940;5.282;2023-05-02T02:04:05;12.50;99.90
27667;DHT22;15074;50.940;5.282;2023-05-02T02:06:32;12.60;99.90
27667;DHT22;15074;50.940;5.282;2023-05-02T02:08:58;12.50;99.90
27667;DHT22;15074;50.940;5.282;2023-05-02T02:11:26;12.60;99.90
27667;DHT22;15074;50.940;5.282;2023-05-02T02:14:00;12.50;99.90
27667;DHT22;15074;50.940;5.282;2023-05-02T02:16:31;12.40;99.90
27667;DHT22;15074;50.940;5.282;2023-05-02T02:18:58;12.40;99.90
27667;DHT22;15074;50.940;5.282;2023-05-02T02:21:27;12.40;99.90
27667;DHT22;15074;50.940;5.282;2023-05-02T02:23:56;12.50;99.90
27667;DHT22;15074;50.940;5.282;2023-05-02T02:26:24;12.40;99.90
27667;DHT22;15074;50.940;5.282;2023-05-02T02:28:50;12.40;99.90
27667;DHT22;15074;50.940;5.282;2023-05-02T02:31:15;12.40;99.90
27667;DHT22;15074;50.940;5.282;2023-05-02T02:33:41;12.40;99.90
27667;DHT22;15074;50.940;5.282;2023-05-02T02:36:14;12.40;99.90
27667;DHT22;15074;50.940;5.282;2023-05-02T02:38:46;12.40;99.90
27667;DHT22;15074;50.940;5.282;2023-05-02T02:41:22;12.20;99.90
27667;DHT22;15074;50.940;5.282;2023-05-02T02:43:54;12.20;99.90
27667;DHT22;15074;50.940;5.282;2023-05-02T02:46:45;12.30;99.90
27667;DHT22;15074;50.940;5.282;2023-05-02T02:49:26;12.30;99.90
27667;DHT22;15074;50.940;5.282;2023-05-02T02:54:43;12.30;99.90
27667;DHT22;15074;50.940;5.282;2023-05-02T02:59:38;12.20;99.90
27667;DHT22;15074;50.940;5.282;2023-05-02T03:02:11;12.00;99.90
27667;DHT22;15074;50.940;5.282;2023-05-02T03:04:43;11.90;99.90
27667;DHT22;15074;50.940;5.282;2023-05-02T03:07:10;11.80;99.90
27667;DHT22;15074;50.940;5.282;2023-05-02T03:31:01;11.20;99.90
27667;DHT22;15074;50.940;5.282;2023-05-02T03:36:53;11.30;99.90
27667;DHT22;15074;50.940;5.282;2023-05-02T03:39:18;11.50;99.90
27667;DHT22;15074;50.940;5.282;2023-05-02T03:41:44;11.50;99.90
27667;DHT22;15074;50.940;5.282;2023-05-02T03:44:10;11.60;99.90
27667;DHT22;15074;50.940;5.282;2023-05-02T03:46:36;11.60;99.90
27667;DHT22;15074;50.940;5.282;2023-05-02T03:49:02;11.60;99.90
27667;DHT22;15074;50.940;5.282;2023-05-02T03:51:27;11.60;99.90
27667;DHT22;15074;50.940;5.282;2023-05-02T04:57:41;11.70;99.90
27667;DHT22;15074;50.940;5.282;2023-05-02T05:00:07;11.90;99.90
27667;DHT22;15074;50.940;5.282;2023-05-02T05:02:33;11.90;99.90
27667;DHT22;15074;50.940;5.282;2023-05-02T05:05:00;11.90;99.90
27667;DHT22;15074;50.940;5.282;2023-05-02T05:07:26;12.00;99.90
27667;DHT22;15074;50.940;5.282;2023-05-02T05:09:52;12.00;99.90
27667;DHT22;15074;50.940;5.282;2023-05-02T05:12:18;12.10;99.90
27667;DHT22;15074;50.940;5.282;2023-05-02T05:14:44;12.20;99.90
27667;DHT22;15074;50.940;5.282;2023-05-02T05:17:10;12.20;99.90
27667;DHT22;15074;50.940;5.282;2023-05-02T05:19:35;12.30;99.90
27667;DHT22;15074;50.940;5.282;2023-05-02T05:22:01;12.30;99.90
27667;DHT22;15074;50.940;5.282;2023-05-02T05:24:26;12.30;99.90
27667;DHT22;15074;50.940;5.282;2023-05-02T05:26:52;12.30;99.90
27667;DHT22;15074;50.940;5.282;2023-05-02T05:29:18;12.40;99.90
27667;DHT22;15074;50.940;5.282;2023-05-02T05:31:43;12.50;99.90
27667;DHT22;15074;50.940;5.282;2023-05-02T05:34:09;12.50;99.90
27667;DHT22;15074;50.940;5.282;2023-05-02T05:36:35;12.60;99.90
27667;DHT22;15074;50.940;5.282;2023-05-02T05:39:01;12.50;99.90
27667;DHT22;15074;50.940;5.282;2023-05-02T05:41:27;12.50;99.90
27667;DHT22;15074;50.940;5.282;2023-05-02T05:43:53;12.50;99.90
27667;DHT22;15074;50.940;5.282;2023-05-02T05:46:20;12.40;99.90
27667;DHT22;15074;50.940;5.282;2023-05-02T05:48:46;12.40;99.90
27667;DHT22;15074;50.940;5.282;2023-05-02T05:51:12;12.40;99.90
27667;DHT22;15074;50.940;5.282;2023-05-02T06:14:20;12.20;99.90
27667;DHT22;15074;50.940;5.282;2023-05-02T06:51:45;12.10;99.90
27667;DHT22;15074;50.940;5.282;2023-05-02T06:54:10;12.00;99.90
27667;DHT22;15074;50.940;5.282;2023-05-02T06:56:36;12.30;99.90
27667;DHT22;15074;50.940;5.282;2023-05-02T06:59:02;13.10;99.90
27667;DHT22;15074;50.940;5.282;2023-05-02T07:01:28;13.70;99.90
27667;DHT22;15074;50.940;5.282;2023-05-02T07:03:54;14.10;99.90
27667;DHT22;15074;50.940;5.282;2023-05-02T07:06:19;14.20;99.90
27667;DHT22;15074;50.940;5.282;2023-05-02T07:08:46;14.20;99.90
27667;DHT22;15074;50.940;5.282;2023-05-02T07:11:11;14.00;99.90
27667;DHT22;15074;50.940;5.282;2023-05-02T07:13:37;14.00;99.90
27667;DHT22;15074;50.940;5.282;2023-05-02T07:16:03;14.90;99.90
27667;DHT22;15074;50.940;5.282;2023-05-02T07:18:31;15.50;99.90
27667;DHT22;15074;50.940;5.282;2023-05-02T07:20:56;15.80;99.90
27667;DHT22;15074;50.940;5.282;2023-05-02T07:23:22;15.90;99.90
27667;DHT22;15074;50.940;5.282;2023-05-02T07:25:48;16.60;99.90
27667;DHT22;15074;50.940;5.282;2023-05-02T07:28:13;17.10;99.90
27667;DHT22;15074;50.940;5.282;2023-05-02T07:30:39;18.70;99.90
27667;DHT22;15074;50.940;5.282;2023-05-02T07:33:05;19.10;99.90
27667;DHT22;15074;50.940;5.282;2023-05-02T07:35:30;18.80;99.90
27667;DHT22;15074;50.940;5.282;2023-05-02T07:37:56;18.30;99.90
27667;DHT22;15074;50.940;5.282;2023-05-02T07:40:22;19.00;99.90
27667;DHT22;15074;50.940;5.282;2023-05-02T07:42:48;19.70;99.90
27667;DHT22;15074;50.940;5.282;2023-05-02T07:45:15;20.20;99.90
27667;DHT22;15074;50.940;5.282;2023-05-02T07:47:41;20.80;99.90
27667;DHT22;15074;50.940;5.282;2023-05-02T07:50:06;21.00;99.90
27667;DHT22;15074;50.940;5.282;2023-05-02T07:52:33;20.90;99.90
27667;DHT22;15074;50.940;5.282;2023-05-02T07:54:59;21.60;99.90
27667;DHT22;15074;50.940;5.282;2023-05-02T07:57:25;22.50;99.90
27667;DHT22;15074;50.940;5.282;2023-05-02T07:59:51;23.20;97.40
27667;DHT22;15074;50.940;5.282;2023-05-02T08:02:17;23.70;95.50
27667;DHT22;15074;50.940;5.282;2023-05-02T08:04:45;24.10;94.60
27667;DHT22;15074;50.940;5.282;2023-05-02T08:07:11;23.00;96.30
27667;DHT22;15074;50.940;5.282;2023-05-02T08:09:36;22.20;96.80
27667;DHT22;15074;50.940;5.282;2023-05-02T08:12:02;21.80;97.70
27667;DHT22;15074;50.940;5.282;2023-05-02T08:14:28;20.70;99.40
27667;DHT22;15074;50.940;5.282;2023-05-02T08:16:54;20.80;99.90
27667;DHT22;15074;50.940;5.282;2023-05-02T08:19:19;20.50;99.50
27667;DHT22;15074;50.940;5.282;2023-05-02T08:21:45;20.20;99.00
27667;DHT22;15074;50.940;5.282;2023-05-02T08:24:17;21.60;97.00
27667;DHT22;15074;50.940;5.282;2023-05-02T08:26:42;22.70;95.80
27667;DHT22;15074;50.940;5.282;2023-05-02T08:29:08;22.40;95.10
27667;DHT22;15074;50.940;5.282;2023-05-02T08:31:36;22.20;94.70
27667;DHT22;15074;50.940;5.282;2023-05-02T08:34:02;21.80;94.70
27667;DHT22;15074;50.940;5.282;2023-05-02T08:36:27;21.80;95.20
27667;DHT22;15074;50.940;5.282;2023-05-02T08:38:53;22.80;94.40
27667;DHT22;15074;50.940;5.282;2023-05-02T08:41:19;24.40;92.60
27667;DHT22;15074;50.940;5.282;2023-05-02T08:43:45;24.60;90.80
27667;DHT22;15074;50.940;5.282;2023-05-02T08:46:13;23.70;91.10
27667;DHT22;15074;50.940;5.282;2023-05-02T08:48:40;22.60;92.10
27667;DHT22;15074;50.940;5.282;2023-05-02T08:51:14;22.10;93.20
27667;DHT22;15074;50.940;5.282;2023-05-02T08:53:40;21.50;93.70
27667;DHT22;15074;50.940;5.282;2023-05-02T08:56:07;21.20;94.60
27667;DHT22;15074;50.940;5.282;2023-05-02T08:58:35;21.30;94.20
27667;DHT22;15074;50.940;5.282;2023-05-02T09:01:02;21.20;94.50
27667;DHT22;15074;50.940;5.282;2023-05-02T09:03:30;21.00;94.80
27667;DHT22;15074;50.940;5.282;2023-05-02T09:06:25;20.80;95.30
27667;DHT22;15074;50.940;5.282;2023-05-02T09:08:51;21.20;95.40
27667;DHT22;15074;50.940;5.282;2023-05-02T09:11:18;21.40;93.90
27667;DHT22;15074;50.940;5.282;2023-05-02T09:13:48;20.50;94.80
27667;DHT22;15074;50.940;5.282;2023-05-02T09:16:22;20.90;95.20
27667;DHT22;15074;50.940;5.282;2023-05-02T09:18:56;20.90;94.10
27667;DHT22;15074;50.940;5.282;2023-05-02T09:21:34;20.60;94.80
27667;DHT22;15074;50.940;5.282;2023-05-02T09:24:01;20.50;94.40
27667;DHT22;15074;50.940;5.282;2023-05-02T09:26:30;19.70;94.80
27667;DHT22;15074;50.940;5.282;2023-05-02T09:29:03;19.30;95.20
27667;DHT22;15074;50.940;5.282;2023-05-02T09:31:31;19.40;95.50
27667;DHT22;15074;50.940;5.282;2023-05-02T09:34:14;20.50;94.40
27667;DHT22;15074;50.940;5.282;2023-05-02T09:39:14;24.30;91.10
27667;DHT22;15074;50.940;5.282;2023-05-02T09:41:41;24.90;88.70
27667;DHT22;15074;50.940;5.282;2023-05-02T09:44:09;24.20;88.50
27667;DHT22;15074;50.940;5.282;2023-05-02T09:46:44;23.40;88.50
27667;DHT22;15074;50.940;5.282;2023-05-02T09:49:10;24.00;88.70
27667;DHT22;15074;50.940;5.282;2023-05-02T09:51:36;25.20;85.70
27667;DHT22;15074;50.940;5.282;2023-05-02T09:54:02;24.60;84.80
27667;DHT22;15074;50.940;5.282;2023-05-02T09:56:28;23.90;84.90
27667;DHT22;15074;50.940;5.282;2023-05-02T09:59:14;23.90;87.50
27667;DHT22;15074;50.940;5.282;2023-05-02T10:01:40;25.60;84.10
27667;DHT22;15074;50.940;5.282;2023-05-02T10:04:11;25.00;81.40
27667;DHT22;15074;50.940;5.282;2023-05-02T10:06:44;23.40;84.50
27667;DHT22;15074;50.940;5.282;2023-05-02T10:09:12;22.30;86.90
27667;DHT22;15074;50.940;5.282;2023-05-02T10:11:41;21.60;89.00
27667;DHT22;15074;50.940;5.282;2023-05-02T10:14:09;22.20;88.50
27667;DHT22;15074;50.940;5.282;2023-05-02T10:16:54;23.80;85.20
27667;DHT22;15074;50.940;5.282;2023-05-02T10:22:21;24.20;82.70
27667;DHT22;15074;50.940;5.282;2023-05-02T10:24:52;25.70;79.80
27667;DHT22;15074;50.940;5.282;2023-05-02T10:27:18;24.80;79.80
27667;DHT22;15074;50.940;5.282;2023-05-02T10:29:45;24.00;81.10
27667;DHT22;15074;50.940;5.282;2023-05-02T10:32:12;23.50;84.10
27667;DHT22;15074;50.940;5.282;2023-05-02T10:34:39;23.90;82.00
27667;DHT22;15074;50.940;5.282;2023-05-02T10:37:06;23.70;82.20
27667;DHT22;15074;50.940;5.282;2023-05-02T10:39:31;24.00;80.20
27667;DHT22;15074;50.940;5.282;2023-05-02T10:41:58;26.00;78.60
27667;DHT22;15074;50.940;5.282;2023-05-02T10:44:38;25.70;76.70
27667;DHT22;15074;50.940;5.282;2023-05-02T10:47:20;24.30;78.50
27667;DHT22;15074;50.940;5.282;2023-05-02T10:52:33;23.80;82.30
27667;DHT22;15074;50.940;5.282;2023-05-02T11:18:59;22.80;82.30
27667;DHT22;15074;50.940;5.282;2023-05-02T11:21:29;21.70;84.00
27667;DHT22;15074;50.940;5.282;2023-05-02T11:30:53;21.50;85.10
27667;DHT22;15074;50.940;5.282;2023-05-02T11:37:11;20.90;86.40
27667;DHT22;15074;50.940;5.282;2023-05-02T11:43:31;21.80;83.90
27667;DHT22;15074;50.940;5.282;2023-05-02T11:49:36;21.30;87.50
27667;DHT22;15074;50.940;5.282;2023-05-02T12:11:06;22.20;81.50
27667;DHT22;15074;50.940;5.282;2023-05-02T12:17:08;21.20;86.00
27667;DHT22;15074;50.940;5.282;2023-05-02T12:19:34;22.60;82.70
27667;DHT22;15074;50.940;5.282;2023-05-02T12:22:02;22.70;82.60
27667;DHT22;15074;50.940;5.282;2023-05-02T12:34:51;23.20;79.90
27667;DHT22;15074;50.940;5.282;2023-05-02T12:41:01;22.10;80.80
27667;DHT22;15074;50.940;5.282;2023-05-02T12:46:58;22.70;79.40
27667;DHT22;15074;50.940;5.282;2023-05-02T12:56:21;24.50;75.20
27667;DHT22;15074;50.940;5.282;2023-05-02T14:06:38;22.80;72.30
27667;DHT22;15074;50.940;5.282;2023-05-02T14:09:04;23.20;73.10
27667;DHT22;15074;50.940;5.282;2023-05-02T14:11:49;23.50;70.90
27667;DHT22;15074;50.940;5.282;2023-05-02T14:14:15;23.90;69.50
27667;DHT22;15074;50.940;5.282;2023-05-02T14:16:41;24.80;69.40
27667;DHT22;15074;50.940;5.282;2023-05-02T14:19:07;25.10;68.40
27667;DHT22;15074;50.940;5.282;2023-05-02T14:21:33;24.90;66.30
27667;DHT22;15074;50.940;5.282;2023-05-02T14:23:59;24.60;65.20
27667;DHT22;15074;50.940;5.282;2023-05-02T14:26:24;24.10;65.80
27667;DHT22;15074;50.940;5.282;2023-05-02T14:28:50;23.90;68.20
27667;DHT22;15074;50.940;5.282;2023-05-02T14:31:17;24.00;68.60
27667;DHT22;15074;50.940;5.282;2023-05-02T14:33:42;24.30;68.70
27667;DHT22;15074;50.940;5.282;2023-05-02T14:36:08;23.50;69.90
27667;DHT22;15074;50.940;5.282;2023-05-02T14:38:34;23.30;68.20
27667;DHT22;15074;50.940;5.282;2023-05-02T14:41:00;22.90;69.80
27667;DHT22;15074;50.940;5.282;2023-05-02T14:43:27;23.00;66.60
27667;DHT22;15074;50.940;5.282;2023-05-02T14:45:53;22.90;69.40
27667;DHT22;15074;50.940;5.282;2023-05-02T14:48:19;23.50;68.70
27667;DHT22;15074;50.940;5.282;2023-05-02T14:50:44;23.20;68.60
27667;DHT22;15074;50.940;5.282;2023-05-02T14:53:10;22.00;72.00
27667;DHT22;15074;50.940;5.282;2023-05-02T14:55:39;21.40;73.70
27667;DHT22;15074;50.940;5.282;2023-05-02T14:58:05;21.20;73.90
27667;DHT22;15074;50.940;5.282;2023-05-02T15:00:34;21.00;73.80
27667;DHT22;15074;50.940;5.282;2023-05-02T15:03:04;20.90;74.30
27667;DHT22;15074;50.940;5.282;2023-05-02T15:05:30;20.80;74.50
27667;DHT22;15074;50.940;5.282;2023-05-02T15:07:55;20.50;75.10
27667;DHT22;15074;50.940;5.282;2023-05-02T15:10:21;20.20;75.90
27667;DHT22;15074;50.940;5.282;2023-05-02T15:12:47;19.90;74.80
27667;DHT22;15074;50.940;5.282;2023-05-02T15:15:16;19.50;75.20
27667;DHT22;15074;50.940;5.282;2023-05-02T15:17:42;19.10;76.60
27667;DHT22;15074;50.940;5.282;2023-05-02T15:20:08;19.00;76.70
27667;DHT22;15074;50.940;5.282;2023-05-02T15:22:34;19.00;76.90
27667;DHT22;15074;50.940;5.282;2023-05-02T15:25:00;19.10;78.00
27667;DHT22;15074;50.940;5.282;2023-05-02T15:27:26;18.90;80.10
27667;DHT22;15074;50.940;5.282;2023-05-02T15:29:51;18.90;78.00
27667;DHT22;15074;50.940;5.282;2023-05-02T15:32:17;18.70;78.50
27667;DHT22;15074;50.940;5.282;2023-05-02T15:34:43;18.40;79.30
27667;DHT22;15074;50.940;5.282;2023-05-02T15:37:09;18.10;79.30
27667;DHT22;15074;50.940;5.282;2023-05-02T15:39:35;18.00;79.70
27667;DHT22;15074;50.940;5.282;2023-05-02T15:42:04;17.60;80.90
27667;DHT22;15074;50.940;5.282;2023-05-02T15:44:35;17.50;80.80
27667;DHT22;15074;50.940;5.282;2023-05-02T15:47:01;17.40;82.70
27667;DHT22;15074;50.940;5.282;2023-05-02T15:49:27;17.30;82.00
27667;DHT22;15074;50.940;5.282;2023-05-02T15:51:58;17.30;83.50
27667;DHT22;15074;50.940;5.282;2023-05-02T15:54:23;17.40;82.60
27667;DHT22;15074;50.940;5.282;2023-05-02T15:56:49;17.50;82.90
27667;DHT22;15074;50.940;5.282;2023-05-02T15:59:15;17.60;81.40
27667;DHT22;15074;50.940;5.282;2023-05-02T16:01:40;17.60;79.90
27667;DHT22;15074;50.940;5.282;2023-05-02T16:04:06;17.60;81.10
27667;DHT22;15074;50.940;5.282;2023-05-02T16:06:34;17.60;82.60
27667;DHT22;15074;50.940;5.282;2023-05-02T16:09:01;17.60;82.50
27667;DHT22;15074;50.940;5.282;2023-05-02T16:11:26;17.50;82.30
27667;DHT22;15074;50.940;5.282;2023-05-02T16:13:52;17.40;82.70
27667;DHT22;15074;50.940;5.282;2023-05-02T16:16:18;17.40;82.90
27667;DHT22;15074;50.940;5.282;2023-05-02T16:18:43;17.40;83.20
27667;DHT22;15074;50.940;5.282;2023-05-02T16:21:09;17.40;83.10
27667;DHT22;15074;50.940;5.282;2023-05-02T16:23:35;17.30;83.70
27667;DHT22;15074;50.940;5.282;2023-05-02T16:26:01;17.00;83.90
27667;DHT22;15074;50.940;5.282;2023-05-02T16:28:27;16.80;84.50
27667;DHT22;15074;50.940;5.282;2023-05-02T16:30:53;16.80;84.30
27667;DHT22;15074;50.940;5.282;2023-05-02T16:33:19;16.70;83.70
27667;DHT22;15074;50.940;5.282;2023-05-02T16:35:45;16.40;83.20
27667;DHT22;15074;50.940;5.282;2023-05-02T16:38:11;16.40;83.90
27667;DHT22;15074;50.940;5.282;2023-05-02T16:40:41;16.50;84.50
27667;DHT22;15074;50.940;5.282;2023-05-02T16:43:07;16.60;83.40
27667;DHT22;15074;50.940;5.282;2023-05-02T16:45:33;16.50;83.90
27667;DHT22;15074;50.940;5.282;2023-05-02T16:47:59;16.60;83.60
27667;DHT22;15074;50.940;5.282;2023-05-02T16:50:25;16.50;83.00
27667;DHT22;15074;50.940;5.282;2023-05-02T16:52:50;16.50;84.00
27667;DHT22;15074;50.940;5.282;2023-05-02T16:55:16;16.40;83.50
27667;DHT22;15074;50.940;5.282;2023-05-02T16:57:42;16.40;83.00
27667;DHT22;15074;50.940;5.282;2023-05-02T17:00:09;16.30;83.10
27667;DHT22;15074;50.940;5.282;2023-05-02T17:02:36;16.10;84.90
27667;DHT22;15074;50.940;5.282;2023-05-02T17:05:01;16.20;86.40
27667;DHT22;15074;50.940;5.282;2023-05-02T17:07:27;16.20;86.50
27667;DHT22;15074;50.940;5.282;2023-05-02T17:09:53;16.10;85.40
27667;DHT22;15074;50.940;5.282;2023-05-02T17:12:19;16.00;85.40
27667;DHT22;15074;50.940;5.282;2023-05-02T17:14:48;15.90;85.60
27667;DHT22;15074;50.940;5.282;2023-05-02T17:17:14;15.90;84.50
27667;DHT22;15074;50.940;5.282;2023-05-02T17:19:43;15.80;85.40
27667;DHT22;15074;50.940;5.282;2023-05-02T17:22:08;15.80;84.90
27667;DHT22;15074;50.940;5.282;2023-05-02T17:24:34;15.60;84.90
27667;DHT22;15074;50.940;5.282;2023-05-02T17:27:01;15.60;85.40
27667;DHT22;15074;50.940;5.282;2023-05-02T17:29:27;15.60;85.00
27667;DHT22;15074;50.940;5.282;2023-05-02T17:31:53;15.50;84.70
27667;DHT22;15074;50.940;5.282;2023-05-02T17:34:21;15.50;85.10
27667;DHT22;15074;50.940;5.282;2023-05-02T17:36:51;15.40;84.40
27667;DHT22;15074;50.940;5.282;2023-05-02T17:39:16;15.40;84.50
27667;DHT22;15074;50.940;5.282;2023-05-02T17:41:42;15.40;84.50
27667;DHT22;15074;50.940;5.282;2023-05-02T17:44:08;15.20;84.10
27667;DHT22;15074;50.940;5.282;2023-05-02T17:46:34;15.20;85.70
27667;DHT22;15074;50.940;5.282;2023-05-02T17:49:00;15.20;86.50
27667;DHT22;15074;50.940;5.282;2023-05-02T17:51:25;15.30;86.00
27667;DHT22;15074;50.940;5.282;2023-05-02T17:53:51;15.20;86.50
27667;DHT22;15074;50.940;5.282;2023-05-02T17:56:17;15.30;86.90
27667;DHT22;15074;50.940;5.282;2023-05-02T17:58:43;15.10;87.40
27667;DHT22;15074;50.940;5.282;2023-05-02T18:01:10;15.10;87.50
27667;DHT22;15074;50.940;5.282;2023-05-02T18:03:37;15.00;88.30
27667;DHT22;15074;50.940;5.282;2023-05-02T18:06:03;15.10;87.40
27667;DHT22;15074;50.940;5.282;2023-05-02T18:08:29;15.10;87.00
27667;DHT22;15074;50.940;5.282;2023-05-02T18:10:57;15.00;87.70
27667;DHT22;15074;50.940;5.282;2023-05-02T18:13:24;14.90;86.60
27667;DHT22;15074;50.940;5.282;2023-05-02T18:15:57;14.80;86.90
27667;DHT22;15074;50.940;5.282;2023-05-02T18:18:23;14.70;87.00
27667;DHT22;15074;50.940;5.282;2023-05-02T18:20:49;14.80;86.60
27667;DHT22;15074;50.940;5.282;2023-05-02T18:23:14;14.80;86.90
27667;DHT22;15074;50.940;5.282;2023-05-02T18:25:41;14.70;87.20
27667;DHT22;15074;50.940;5.282;2023-05-02T18:28:07;14.70;87.00
27667;DHT22;15074;50.940;5.282;2023-05-02T18:30:36;14.60;87.70
27667;DHT22;15074;50.940;5.282;2023-05-02T18:33:03;14.60;87.70
27667;DHT22;15074;50.940;5.282;2023-05-02T18:35:29;14.60;87.80
27667;DHT22;15074;50.940;5.282;2023-05-02T18:37:54;14.40;89.10
27667;DHT22;15074;50.940;5.282;2023-05-02T18:40:23;14.30;90.10
27667;DHT22;15074;50.940;5.282;2023-05-02T18:42:49;14.20;90.70
27667;DHT22;15074;50.940;5.282;2023-05-02T18:45:15;14.10;91.00
27667;DHT22;15074;50.940;5.282;2023-05-02T18:47:41;14.10;91.10
27667;DHT22;15074;50.940;5.282;2023-05-02T18:50:07;14.10;91.30
27667;DHT22;15074;50.940;5.282;2023-05-02T18:52:34;13.90;91.80
27667;DHT22;15074;50.940;5.282;2023-05-02T18:55:00;13.90;91.80
27667;DHT22;15074;50.940;5.282;2023-05-02T18:57:30;13.90;92.00
27667;DHT22;15074;50.940;5.282;2023-05-02T18:59:58;13.70;92.60
27667;DHT22;15074;50.940;5.282;2023-05-02T19:02:24;13.50;93.30
27667;DHT22;15074;50.940;5.282;2023-05-02T19:04:50;13.50;93.50
27667;DHT22;15074;50.940;5.282;2023-05-02T19:07:16;13.40;94.00
27667;DHT22;15074;50.940;5.282;2023-05-02T19:09:42;13.20;94.00
27667;DHT22;15074;50.940;5.282;2023-05-02T19:12:07;13.10;94.50
27667;DHT22;15074;50.940;5.282;2023-05-02T19:14:33;13.10;94.80
27667;DHT22;15074;50.940;5.282;2023-05-02T19:17:00;13.00;95.20
27667;DHT22;15074;50.940;5.282;2023-05-02T19:19:26;12.90;95.10
27667;DHT22;15074;50.940;5.282;2023-05-02T19:21:52;12.80;95.50
27667;DHT22;15074;50.940;5.282;2023-05-02T19:24:18;12.80;95.50
27667;DHT22;15074;50.940;5.282;2023-05-02T19:26:44;12.70;95.40
27667;DHT22;15074;50.940;5.282;2023-05-02T19:29:10;12.70;95.80
27667;DHT22;15074;50.940;5.282;2023-05-02T19:31:35;12.60;96.00
27667;DHT22;15074;50.940;5.282;2023-05-02T19:34:03;12.60;96.20
27667;DHT22;15074;50.940;5.282;2023-05-02T19:36:28;12.50;96.30
27667;DHT22;15074;50.940;5.282;2023-05-02T19:38:54;12.40;96.60
27667;DHT22;15074;50.940;5.282;2023-05-02T19:41:22;12.40;97.00
27667;DHT22;15074;50.940;5.282;2023-05-02T19:43:48;12.30;97.30
27667;DHT22;15074;50.940;5.282;2023-05-02T19:46:15;12.30;97.30
27667;DHT22;15074;50.940;5.282;2023-05-02T19:49:08;12.20;97.70
27667;DHT22;15074;50.940;5.282;2023-05-02T19:51:34;12.10;97.90
27667;DHT22;15074;50.940;5.282;2023-05-02T19:53:59;12.00;98.40
27667;DHT22;15074;50.940;5.282;2023-05-02T19:56:56;12.00;98.70
27667;DHT22;15074;50.940;5.282;2023-05-02T19:59:22;11.90;98.90
27667;DHT22;15074;50.940;5.282;2023-05-02T20:01:48;11.80;99.10
27667;DHT22;15074;50.940;5.282;2023-05-02T20:04:14;11.80;99.40
27667;DHT22;15074;50.940;5.282;2023-05-02T20:06:40;11.70;99.70
27667;DHT22;15074;50.940;5.282;2023-05-02T20:09:05;11.60;99.90
27667;DHT22;15074;50.940;5.282;2023-05-02T20:11:31;11.60;99.90
27667;DHT22;15074;50.940;5.282;2023-05-02T20:13:57;11.60;99.90
27667;DHT22;15074;50.940;5.282;2023-05-02T20:16:23;11.60;99.90
27667;DHT22;15074;50.940;5.282;2023-05-02T20:18:49;11.60;99.90
27667;DHT22;15074;50.940;5.282;2023-05-02T20:21:15;11.50;99.90
27667;DHT22;15074;50.940;5.282;2023-05-02T20:23:41;11.40;99.90
27667;DHT22;15074;50.940;5.282;2023-05-02T20:26:08;11.40;99.90
27667;DHT22;15074;50.940;5.282;2023-05-02T20:28:34;11.30;99.90
27667;DHT22;15074;50.940;5.282;2023-05-02T20:31:01;11.30;99.90
27667;DHT22;15074;50.940;5.282;2023-05-02T20:33:27;11.30;99.90
27667;DHT22;15074;50.940;5.282;2023-05-02T20:35:53;11.30;99.90
27667;DHT22;15074;50.940;5.282;2023-05-02T20:38:19;11.10;99.90
27667;DHT22;15074;50.940;5.282;2023-05-02T20:40:45;11.20;99.90
27667;DHT22;15074;50.940;5.282;2023-05-02T20:43:10;11.10;99.90
27667;DHT22;15074;50.940;5.282;2023-05-02T20:45:37;11.00;99.90
27667;DHT22;15074;50.940;5.282;2023-05-02T20:48:04;11.00;99.90
27667;DHT22;15074;50.940;5.282;2023-05-02T20:50:30;11.00;99.90
27667;DHT22;15074;50.940;5.282;2023-05-02T20:52:56;10.90;99.90
27667;DHT22;15074;50.940;5.282;2023-05-02T20:55:23;10.90;99.90
27667;DHT22;15074;50.940;5.282;2023-05-02T20:57:48;10.70;99.90
27667;DHT22;15074;50.940;5.282;2023-05-02T21:00:17;10.70;99.90